sensor_id;sensor_type;location;lat;lon;timestamp;temperature;humidity
9730;DHT22;4904;49.152;11.004;2023-07-08T00:00:15;17.60;99.90
9730;DHT22;4904;49.152;11.004;2023-07-08T00:02:42;17.60;99.90
9730;DHT22;4904;49.152;11.004;2023-07-08T00:05:10;17.60;99.90
9730;DHT22;4904;49.152;11.004;2023-07-08T00:07:38;17.40;99.90
9730;DHT22;4904;49.152;11.004;2023-07-08T00:10:16;17.00;99.90
9730;DHT22;4904;49.152;11.004;2023-07-08T00:12:45;17.10;99.90
9730;DHT22;4904;49.152;11.004;2023-07-08T00:15:14;17.00;99.90
9730;DHT22;4904;49.152;11.004;2023-07-08T00:17:42;16.90;99.90
9730;DHT22;4904;49.152;11.004;2023-07-08T00:20:14;16.60;99.90
9730;DHT22;4904;49.152;11.004;2023-07-08T00:22:41;16.70;99.90
9730;DHT22;4904;49.152;11.004;2023-07-08T00:25:08;16.70;99.90
9730;DHT22;4904;49.152;11.004;2023-07-08T00:27:35;16.60;99.90
9730;DHT22;4904;49.152;11.004;2023-07-08T00:30:15;16.70;99.90
9730;DHT22;4904;49.152;11.004;2023-07-08T00:32:44;16.70;99.90
9730;DHT22;4904;49.152;11.004;2023-07-08T00:35:11;16.70;99.90
9730;DHT22;4904;49.152;11.004;2023-07-08T00:37:37;16.70;99.90
9730;DHT22;4904;49.152;11.004;2023-07-08T00:40:13;16.50;99.90
9730;DHT22;4904;49.152;11.004;2023-07-08T00:42:42;16.60;99.90
9730;DHT22;4904;49.152;11.004;2023-07-08T00:45:18;16.30;99.90
9730;DHT22;4904;49.152;11.004;2023-07-08T00:47:48;16.30;99.90
9730;DHT22;4904;49.152;11.004;2023-07-08T00:50:15;16.20;99.90
9730;DHT22;4904;49.152;11.004;2023-07-08T00:52:44;16.20;99.90
9730;DHT22;4904;49.152;11.004;2023-07-08T00:55:12;16.30;99.90
9730;DHT22;4904;49.152;11.004;2023-07-08T00:57:42;16.50;99.90
9730;DHT22;4904;49.152;11.004;2023-07-08T01:00:15;16.10;99.90
9730;DHT22;4904;49.152;11.004;2023-07-08T01:02:46;16.00;99.90
9730;DHT22;4904;49.152;11.004;2023-07-08T01:05:16;16.00;99.90
9730;DHT22;4904;49.152;11.004;2023-07-08T01:07:46;16.00;99.90
9730;DHT22;4904;49.152;11.004;2023-07-08T01:10:19;15.80;99.90
9730;DHT22;4904;49.152;11.004;2023-07-08T01:12:49;15.90;99.90
9730;DHT22;4904;49.152;11.004;2023-07-08T01:15:22;16.00;99.90
9730;DHT22;4904;49.152;11.004;2023-07-08T01:17:50;16.10;99.90
9730;DHT22;4904;49.152;11.004;2023-07-08T01:20:19;16.20;99.90
9730;DHT22;4904;49.152;11.004;2023-07-08T01:22:47;16.10;99.90
9730;DHT22;4904;49.152;11.004;2023-07-08T01:25:14;16.20;99.90
9730;DHT22;4904;49.152;11.004;2023-07-08T01:27:43;16.10;99.90
9730;DHT22;4904;49.152;11.004;2023-07-08T01:30:14;16.10;99.90
9730;DHT22;4904;49.152;11.004;2023-07-08T01:32:46;16.10;99.90
9730;DHT22;4904;49.152;11.004;2023-07-08T01:35:14;16.20;99.90
9730;DHT22;4904;49.152;11.004;2023-07-08T01:37:44;16.20;99.90
9730;DHT22;4904;49.152;11.004;2023-07-08T01:40:16;16.10;99.90
9730;DHT22;4904;49.152;11.004;2023-07-08T01:42:43;15.90;99.90
9730;DHT22;4904;49.152;11.004;2023-07-08T01:45:12;15.60;99.90
9730;DHT22;4904;49.152;11.004;2023-07-08T01:47:40;15.70;99.90
9730;DHT22;4904;49.152;11.004;2023-07-08T01:50:08;15.70;99.90
9730;DHT22;4904;49.152;11.004;2023-07-08T01:52:36;15.70;99.90
9730;DHT22;4904;49.152;11.004;2023-07-08T01:55:03;15.50;99.90
9730;DHT22;4904;49.152;11.004;2023-07-08T01:57:32;15.50;99.90
9730;DHT22;4904;49.152;11.004;2023-07-08T01:59:59;15.60;99.90
9730;DHT22;4904;49.152;11.004;2023-07-08T02:02:26;15.70;99.90
9730;DHT22;4904;49.152;11.004;2023-07-08T02:04:52;15.70;99.90
9730;DHT22;4904;49.152;11.004;2023-07-08T02:07:19;15.40;99.90
9730;DHT22;4904;49.152;11.004;2023-07-08T02:09:46;15.40;99.90
9730;DHT22;4904;49.152;11.004;2023-07-08T02:12:13;15.30;99.90
9730;DHT22;4904;49.152;11.004;2023-07-08T02:14:41;15.30;99.90
9730;DHT22;4904;49.152;11.004;2023-07-08T02:17:08;15.40;99.90
9730;DHT22;4904;49.152;11.004;2023-07-08T02:19:34;15.50;99.90
9730;DHT22;4904;49.152;11.004;2023-07-08T02:22:01;15.50;99.90
9730;DHT22;4904;49.152;11.004;2023-07-08T02:24:30;15.40;99.90
9730;DHT22;4904;49.152;11.004;2023-07-08T02:26:56;15.50;99.90
9730;DHT22;4904;49.152;11.004;2023-07-08T02:29:23;15.40;99.90
9730;DHT22;4904;49.152;11.004;2023-07-08T02:31:51;15.30;99.90
9730;DHT22;4904;49.152;11.004;2023-07-08T02:34:18;15.30;99.90
9730;DHT22;4904;49.152;11.004;2023-07-08T02:36:45;15.30;99.90
9730;DHT22;4904;49.152;11.004;2023-07-08T02:39:12;15.30;99.90
9730;DHT22;4904;49.152;11.004;2023-07-08T02:41:39;15.30;99.90
9730;DHT22;4904;49.152;11.004;2023-07-08T02:44:06;15.30;99.90
9730;DHT22;4904;49.152;11.004;2023-07-08T02:46:33;15.40;99.90
9730;DHT22;4904;49.152;11.004;2023-07-08T02:49:01;15.40;99.90
9730;DHT22;4904;49.152;11.004;2023-07-08T02:51:28;15.50;99.90
9730;DHT22;4904;49.152;11.004;2023-07-08T02:53:54;15.50;99.90
9730;DHT22;4904;49.152;11.004;2023-07-08T02:56:21;15.50;99.90
9730;DHT22;4904;49.152;11.004;2023-07-08T02:58:48;15.50;99.90
9730;DHT22;4904;49.152;11.004;2023-07-08T03:01:15;15.50;99.90
9730;DHT22;4904;49.152;11.004;2023-07-08T03:03:43;15.50;99.90
9730;DHT22;4904;49.152;11.004;2023-07-08T03:06:12;15.40;99.90
9730;DHT22;4904;49.152;11.004;2023-07-08T03:08:38;15.30;99.90
9730;DHT22;4904;49.152;11.004;2023-07-08T03:11:07;15.30;99.90
9730;DHT22;4904;49.152;11.004;2023-07-08T03:13:34;15.20;99.90
9730;DHT22;4904;49.152;11.004;2023-07-08T03:16:02;15.10;99.90
9730;DHT22;4904;49.152;11.004;2023-07-08T03:18:38;15.00;99.90
9730;DHT22;4904;49.152;11.004;2023-07-08T03:21:14;15.00;99.90
9730;DHT22;4904;49.152;11.004;2023-07-08T03:23:41;14.90;99.90
9730;DHT22;4904;49.152;11.004;2023-07-08T03:26:13;14.50;99.90
9730;DHT22;4904;49.152;11.004;2023-07-08T03:28:41;14.30;99.90
9730;DHT22;4904;49.152;11.004;2023-07-08T03:31:09;14.40;99.90
9730;DHT22;4904;49.152;11.004;2023-07-08T03:33:36;14.20;99.90
9730;DHT22;4904;49.152;11.004;2023-07-08T03:36:04;14.10;99.90
9730;DHT22;4904;49.152;11.004;2023-07-08T03:38:32;14.20;99.90
9730;DHT22;4904;49.152;11.004;2023-07-08T03:40:59;14.20;99.90
9730;DHT22;4904;49.152;11.004;2023-07-08T03:43:26;14.40;99.90
9730;DHT22;4904;49.152;11.004;2023-07-08T03:45:53;14.50;99.90
9730;DHT22;4904;49.152;11.004;2023-07-08T03:48:20;14.60;99.90
9730;DHT22;4904;49.152;11.004;2023-07-08T03:50:47;14.50;99.90
9730;DHT22;4904;49.152;11.004;2023-07-08T03:53:13;14.50;99.90
9730;DHT22;4904;49.152;11.004;2023-07-08T03:55:41;14.40;99.90
9730;DHT22;4904;49.152;11.004;2023-07-08T03:58:08;14.50;99.90
9730;DHT22;4904;49.152;11.004;2023-07-08T04:00:35;14.70;99.90
9730;DHT22;4904;49.152;11.004;2023-07-08T04:03:02;14.60;99.90
9730;DHT22;4904;49.152;11.004;2023-07-08T04:05:29;14.50;99.90
9730;DHT22;4904;49.152;11.004;2023-07-08T04:07:56;14.70;99.90
9730;DHT22;4904;49.152;11.004;2023-07-08T04:10:22;14.80;99.90
9730;DHT22;4904;49.152;11.004;2023-07-08T04:12:51;14.80;99.90
9730;DHT22;4904;49.152;11.004;2023-07-08T04:15:18;14.80;99.90
9730;DHT22;4904;49.152;11.004;2023-07-08T04:17:46;14.90;99.90
9730;DHT22;4904;49.152;11.004;2023-07-08T04:20:15;15.00;99.90
9730;DHT22;4904;49.152;11.004;2023-07-08T04:22:44;15.10;99.90
9730;DHT22;4904;49.152;11.004;2023-07-08T04:25:12;15.10;99.90
9730;DHT22;4904;49.152;11.004;2023-07-08T04:27:39;15.10;99.90
9730;DHT22;4904;49.152;11.004;2023-07-08T04:30:18;15.20;99.90
9730;DHT22;4904;49.152;11.004;2023-07-08T04:32:46;15.20;99.90
9730;DHT22;4904;49.152;11.004;2023-07-08T04:35:13;15.20;99.90
9730;DHT22;4904;49.152;11.004;2023-07-08T04:37:40;15.30;99.90
9730;DHT22;4904;49.152;11.004;2023-07-08T04:40:16;15.30;99.90
9730;DHT22;4904;49.152;11.004;2023-07-08T04:42:44;15.20;99.90
9730;DHT22;4904;49.152;11.004;2023-07-08T04:45:17;15.20;99.90
9730;DHT22;4904;49.152;11.004;2023-07-08T04:47:44;15.10;99.90
9730;DHT22;4904;49.152;11.004;2023-07-08T04:50:12;15.00;99.90
9730;DHT22;4904;49.152;11.004;2023-07-08T04:52:39;15.00;99.90
9730;DHT22;4904;49.152;11.004;2023-07-08T04:55:06;15.20;99.90
9730;DHT22;4904;49.152;11.004;2023-07-08T04:57:35;15.20;99.90
9730;DHT22;4904;49.152;11.004;2023-07-08T05:00:02;15.30;99.90
9730;DHT22;4904;49.152;11.004;2023-07-08T05:02:34;15.40;99.90
9730;DHT22;4904;49.152;11.004;2023-07-08T05:05:01;15.50;99.90
9730;DHT22;4904;49.152;11.004;2023-07-08T05:07:28;15.60;99.90
9730;DHT22;4904;49.152;11.004;2023-07-08T05:09:54;15.80;99.90
9730;DHT22;4904;49.152;11.004;2023-07-08T05:12:21;15.90;99.90
9730;DHT22;4904;49.152;11.004;2023-07-08T05:14:48;16.10;99.90
9730;DHT22;4904;49.152;11.004;2023-07-08T05:17:15;16.20;99.90
9730;DHT22;4904;49.152;11.004;2023-07-08T05:19:43;16.30;99.90
9730;DHT22;4904;49.152;11.004;2023-07-08T05:22:11;16.40;99.90
9730;DHT22;4904;49.152;11.004;2023-07-08T05:24:38;16.50;99.90
9730;DHT22;4904;49.152;11.004;2023-07-08T05:27:05;16.60;99.90
9730;DHT22;4904;49.152;11.004;2023-07-08T05:29:32;16.70;99.90
9730;DHT22;4904;49.152;11.004;2023-07-08T05:31:58;16.80;99.90
9730;DHT22;4904;49.152;11.004;2023-07-08T05:34:25;16.90;99.90
9730;DHT22;4904;49.152;11.004;2023-07-08T05:36:53;17.00;99.90
9730;DHT22;4904;49.152;11.004;2023-07-08T05:39:20;17.20;99.90
9730;DHT22;4904;49.152;11.004;2023-07-08T05:41:47;17.20;99.90
9730;DHT22;4904;49.152;11.004;2023-07-08T05:44:14;17.30;99.90
9730;DHT22;4904;49.152;11.004;2023-07-08T05:46:41;17.40;99.90
9730;DHT22;4904;49.152;11.004;2023-07-08T05:49:07;17.50;99.90
9730;DHT22;4904;49.152;11.004;2023-07-08T05:51:36;17.70;99.90
9730;DHT22;4904;49.152;11.004;2023-07-08T05:54:04;17.80;99.90
9730;DHT22;4904;49.152;11.004;2023-07-08T05:56:31;17.90;99.90
9730;DHT22;4904;49.152;11.004;2023-07-08T05:58:58;18.00;99.90
9730;DHT22;4904;49.152;11.004;2023-07-08T06:01:24;18.10;99.90
9730;DHT22;4904;49.152;11.004;2023-07-08T06:03:51;18.30;99.90
9730;DHT22;4904;49.152;11.004;2023-07-08T06:06:18;18.40;99.90
9730;DHT22;4904;49.152;11.004;2023-07-08T06:08:45;18.40;99.90
9730;DHT22;4904;49.152;11.004;2023-07-08T06:11:13;18.50;99.90
9730;DHT22;4904;49.152;11.004;2023-07-08T06:13:40;18.70;99.90
9730;DHT22;4904;49.152;11.004;2023-07-08T06:16:07;18.80;99.90
9730;DHT22;4904;49.152;11.004;2023-07-08T06:18:34;18.90;99.90
9730;DHT22;4904;49.152;11.004;2023-07-08T06:21:01;19.10;99.90
9730;DHT22;4904;49.152;11.004;2023-07-08T06:23:28;19.20;99.90
9730;DHT22;4904;49.152;11.004;2023-07-08T06:25:55;19.30;99.90
9730;DHT22;4904;49.152;11.004;2023-07-08T06:28:24;19.50;99.90
9730;DHT22;4904;49.152;11.004;2023-07-08T06:30:50;19.50;99.90
9730;DHT22;4904;49.152;11.004;2023-07-08T06:33:17;19.70;99.90
9730;DHT22;4904;49.152;11.004;2023-07-08T06:35:44;19.80;99.90
9730;DHT22;4904;49.152;11.004;2023-07-08T06:38:12;19.90;99.90
9730;DHT22;4904;49.152;11.004;2023-07-08T06:40:39;20.00;99.90
9730;DHT22;4904;49.152;11.004;2023-07-08T06:43:05;20.10;99.90
9730;DHT22;4904;49.152;11.004;2023-07-08T06:45:34;20.30;99.90
9730;DHT22;4904;49.152;11.004;2023-07-08T06:48:00;20.40;99.90
9730;DHT22;4904;49.152;11.004;2023-07-08T06:50:27;20.50;99.90
9730;DHT22;4904;49.152;11.004;2023-07-08T06:52:54;20.70;99.90
9730;DHT22;4904;49.152;11.004;2023-07-08T06:55:21;20.90;99.90
9730;DHT22;4904;49.152;11.004;2023-07-08T06:57:48;21.00;99.90
9730;DHT22;4904;49.152;11.004;2023-07-08T07:00:15;21.10;99.90
9730;DHT22;4904;49.152;11.004;2023-07-08T07:02:43;21.30;99.90
9730;DHT22;4904;49.152;11.004;2023-07-08T07:05:10;21.40;99.90
9730;DHT22;4904;49.152;11.004;2023-07-08T07:07:37;21.60;99.90
9730;DHT22;4904;49.152;11.004;2023-07-08T07:10:04;21.80;99.90
9730;DHT22;4904;49.152;11.004;2023-07-08T07:12:31;21.90;99.90
9730;DHT22;4904;49.152;11.004;2023-07-08T07:14:58;22.10;99.90
9730;DHT22;4904;49.152;11.004;2023-07-08T07:17:25;22.20;99.90
9730;DHT22;4904;49.152;11.004;2023-07-08T07:19:54;22.30;99.90
9730;DHT22;4904;49.152;11.004;2023-07-08T07:22:21;22.50;99.90
9730;DHT22;4904;49.152;11.004;2023-07-08T07:24:48;22.50;99.90
9730;DHT22;4904;49.152;11.004;2023-07-08T07:27:15;22.70;99.90
9730;DHT22;4904;49.152;11.004;2023-07-08T07:29:44;22.80;99.90
9730;DHT22;4904;49.152;11.004;2023-07-08T07:32:12;22.90;99.90
9730;DHT22;4904;49.152;11.004;2023-07-08T07:34:39;23.00;99.90
9730;DHT22;4904;49.152;11.004;2023-07-08T07:37:11;23.00;99.90
9730;DHT22;4904;49.152;11.004;2023-07-08T07:39:38;23.20;99.90
9730;DHT22;4904;49.152;11.004;2023-07-08T07:42:05;23.20;99.90
9730;DHT22;4904;49.152;11.004;2023-07-08T07:44:33;23.30;99.90
9730;DHT22;4904;49.152;11.004;2023-07-08T07:46:59;23.40;99.90
9730;DHT22;4904;49.152;11.004;2023-07-08T07:49:26;23.50;99.90
9730;DHT22;4904;49.152;11.004;2023-07-08T07:51:53;23.60;99.90
9730;DHT22;4904;49.152;11.004;2023-07-08T07:54:22;23.70;99.90
9730;DHT22;4904;49.152;11.004;2023-07-08T07:56:49;23.80;99.90
9730;DHT22;4904;49.152;11.004;2023-07-08T07:59:16;23.90;99.90
9730;DHT22;4904;49.152;11.004;2023-07-08T08:01:43;24.00;99.90
9730;DHT22;4904;49.152;11.004;2023-07-08T08:04:10;24.10;99.90
9730;DHT22;4904;49.152;11.004;2023-07-08T08:06:37;24.20;99.90
9730;DHT22;4904;49.152;11.004;2023-07-08T08:09:05;24.20;99.90
9730;DHT22;4904;49.152;11.004;2023-07-08T08:11:34;24.40;99.90
9730;DHT22;4904;49.152;11.004;2023-07-08T08:14:01;24.40;99.90
9730;DHT22;4904;49.152;11.004;2023-07-08T08:16:29;24.50;99.90
9730;DHT22;4904;49.152;11.004;2023-07-08T08:18:56;24.70;99.90
9730;DHT22;4904;49.152;11.004;2023-07-08T08:21:23;24.70;99.90
9730;DHT22;4904;49.152;11.004;2023-07-08T08:23:50;24.70;99.90
9730;DHT22;4904;49.152;11.004;2023-07-08T08:26:17;24.80;99.90
9730;DHT22;4904;49.152;11.004;2023-07-08T08:28:45;24.70;99.90
9730;DHT22;4904;49.152;11.004;2023-07-08T08:31:12;24.70;99.90
9730;DHT22;4904;49.152;11.004;2023-07-08T08:33:38;24.70;99.90
9730;DHT22;4904;49.152;11.004;2023-07-08T08:36:05;24.80;99.90
9730;DHT22;4904;49.152;11.004;2023-07-08T08:38:32;24.80;99.90
9730;DHT22;4904;49.152;11.004;2023-07-08T08:41:03;24.90;99.90
9730;DHT22;4904;49.152;11.004;2023-07-08T08:43:34;25.00;99.90
9730;DHT22;4904;49.152;11.004;2023-07-08T08:46:06;25.10;99.90
9730;DHT22;4904;49.152;11.004;2023-07-08T08:48:41;25.20;99.90
9730;DHT22;4904;49.152;11.004;2023-07-08T08:51:13;25.30;99.90
9730;DHT22;4904;49.152;11.004;2023-07-08T08:53:41;25.30;99.90
9730;DHT22;4904;49.152;11.004;2023-07-08T08:56:20;25.30;99.90
9730;DHT22;4904;49.152;11.004;2023-07-08T08:58:54;25.40;99.90
9730;DHT22;4904;49.152;11.004;2023-07-08T09:01:25;25.40;99.90
9730;DHT22;4904;49.152;11.004;2023-07-08T09:04:00;25.50;99.90
9730;DHT22;4904;49.152;11.004;2023-07-08T09:06:30;25.60;99.90
9730;DHT22;4904;49.152;11.004;2023-07-08T09:09:02;25.80;99.90
9730;DHT22;4904;49.152;11.004;2023-07-08T09:11:40;25.80;99.90
9730;DHT22;4904;49.152;11.004;2023-07-08T09:14:16;25.80;99.90
9730;DHT22;4904;49.152;11.004;2023-07-08T09:16:51;25.80;99.90
9730;DHT22;4904;49.152;11.004;2023-07-08T09:19:23;26.00;99.90
9730;DHT22;4904;49.152;11.004;2023-07-08T09:21:55;26.00;99.90
9730;DHT22;4904;49.152;11.004;2023-07-08T09:24:41;26.00;99.90
9730;DHT22;4904;49.152;11.004;2023-07-08T09:27:09;26.10;99.90
9730;DHT22;4904;49.152;11.004;2023-07-08T09:29:35;26.10;99.90
9730;DHT22;4904;49.152;11.004;2023-07-08T09:32:15;26.30;99.90
9730;DHT22;4904;49.152;11.004;2023-07-08T09:34:45;26.40;99.90
9730;DHT22;4904;49.152;11.004;2023-07-08T09:37:22;26.40;99.90
9730;DHT22;4904;49.152;11.004;2023-07-08T09:39:50;26.50;99.90
9730;DHT22;4904;49.152;11.004;2023-07-08T09:42:19;26.50;99.90
9730;DHT22;4904;49.152;11.004;2023-07-08T09:44:47;26.50;99.90
9730;DHT22;4904;49.152;11.004;2023-07-08T09:47:22;26.50;99.90
9730;DHT22;4904;49.152;11.004;2023-07-08T09:49:52;26.60;99.90
9730;DHT22;4904;49.152;11.004;2023-07-08T09:52:19;26.70;99.90
9730;DHT22;4904;49.152;11.004;2023-07-08T09:54:46;26.80;99.90
9730;DHT22;4904;49.152;11.004;2023-07-08T09:57:22;26.90;99.90
9730;DHT22;4904;49.152;11.004;2023-07-08T09:59:54;26.80;99.90
9730;DHT22;4904;49.152;11.004;2023-07-08T10:02:28;26.90;99.90
9730;DHT22;4904;49.152;11.004;2023-07-08T10:04:57;27.00;99.90
9730;DHT22;4904;49.152;11.004;2023-07-08T10:07:28;27.10;99.90
9730;DHT22;4904;49.152;11.004;2023-07-08T10:09:57;27.30;99.90
9730;DHT22;4904;49.152;11.004;2023-07-08T10:12:25;27.40;99.90
9730;DHT22;4904;49.152;11.004;2023-07-08T10:14:58;27.50;99.90
9730;DHT22;4904;49.152;11.004;2023-07-08T10:17:27;27.60;99.90
9730;DHT22;4904;49.152;11.004;2023-07-08T10:19:55;27.70;99.90
9730;DHT22;4904;49.152;11.004;2023-07-08T10:22:36;27.80;99.90
9730;DHT22;4904;49.152;11.004;2023-07-08T10:25:13;27.90;99.90
9730;DHT22;4904;49.152;11.004;2023-07-08T10:27:48;28.00;99.90
9730;DHT22;4904;49.152;11.004;2023-07-08T10:30:22;28.10;99.90
9730;DHT22;4904;49.152;11.004;2023-07-08T10:33:02;28.10;99.90
9730;DHT22;4904;49.152;11.004;2023-07-08T10:35:36;28.20;99.90
9730;DHT22;4904;49.152;11.004;2023-07-08T10:38:30;28.20;99.90
9730;DHT22;4904;49.152;11.004;2023-07-08T10:41:05;28.20;99.90
9730;DHT22;4904;49.152;11.004;2023-07-08T10:43:44;28.30;99.90
9730;DHT22;4904;49.152;11.004;2023-07-08T10:46:22;28.50;99.90
9730;DHT22;4904;49.152;11.004;2023-07-08T10:49:16;28.60;99.90
9730;DHT22;4904;49.152;11.004;2023-07-08T10:51:51;28.80;99.90
9730;DHT22;4904;49.152;11.004;2023-07-08T10:54:38;28.60;99.90
9730;DHT22;4904;49.152;11.004;2023-07-08T10:57:26;28.70;99.90
9730;DHT22;4904;49.152;11.004;2023-07-08T11:00:03;28.70;99.90
9730;DHT22;4904;49.152;11.004;2023-07-08T11:03:00;28.80;99.90
9730;DHT22;4904;49.152;11.004;2023-07-08T11:05:35;28.80;99.90
9730;DHT22;4904;49.152;11.004;2023-07-08T11:08:08;28.80;99.90
9730;DHT22;4904;49.152;11.004;2023-07-08T11:10:47;28.80;99.90
9730;DHT22;4904;49.152;11.004;2023-07-08T11:13:18;29.00;99.90
9730;DHT22;4904;49.152;11.004;2023-07-08T11:15:51;29.00;99.90
9730;DHT22;4904;49.152;11.004;2023-07-08T11:18:25;29.10;99.90
9730;DHT22;4904;49.152;11.004;2023-07-08T11:20:59;29.20;99.90
9730;DHT22;4904;49.152;11.004;2023-07-08T11:23:31;29.30;99.90
9730;DHT22;4904;49.152;11.004;2023-07-08T11:26:10;29.30;99.90
9730;DHT22;4904;49.152;11.004;2023-07-08T11:28:37;29.40;99.90
9730;DHT22;4904;49.152;11.004;2023-07-08T11:31:05;29.50;99.90
9730;DHT22;4904;49.152;11.004;2023-07-08T11:33:32;29.40;99.90
9730;DHT22;4904;49.152;11.004;2023-07-08T11:36:02;29.30;99.90
9730;DHT22;4904;49.152;11.004;2023-07-08T11:38:32;29.40;99.90
9730;DHT22;4904;49.152;11.004;2023-07-08T11:41:02;29.40;99.90
9730;DHT22;4904;49.152;11.004;2023-07-08T11:43:39;29.40;99.90
9730;DHT22;4904;49.152;11.004;2023-07-08T11:46:14;29.40;99.90
9730;DHT22;4904;49.152;11.004;2023-07-08T11:48:45;29.50;99.90
9730;DHT22;4904;49.152;11.004;2023-07-08T11:51:18;29.50;99.90
9730;DHT22;4904;49.152;11.004;2023-07-08T11:53:50;29.50;99.90
9730;DHT22;4904;49.152;11.004;2023-07-08T11:56:23;29.50;99.90
9730;DHT22;4904;49.152;11.004;2023-07-08T11:58:57;29.50;99.90
9730;DHT22;4904;49.152;11.004;2023-07-08T12:01:27;29.50;99.90
9730;DHT22;4904;49.152;11.004;2023-07-08T12:03:59;29.40;99.90
9730;DHT22;4904;49.152;11.004;2023-07-08T12:06:43;29.40;99.90
9730;DHT22;4904;49.152;11.004;2023-07-08T12:09:22;29.50;99.90
9730;DHT22;4904;49.152;11.004;2023-07-08T12:11:53;29.70;99.90
9730;DHT22;4904;49.152;11.004;2023-07-08T12:14:20;29.70;99.90
9730;DHT22;4904;49.152;11.004;2023-07-08T12:16:48;29.80;99.90
9730;DHT22;4904;49.152;11.004;2023-07-08T12:19:17;29.80;99.90
9730;DHT22;4904;49.152;11.004;2023-07-08T12:21:46;29.70;99.90
9730;DHT22;4904;49.152;11.004;2023-07-08T12:24:14;29.50;99.90
9730;DHT22;4904;49.152;11.004;2023-07-08T12:26:41;29.60;99.90
9730;DHT22;4904;49.152;11.004;2023-07-08T12:29:11;29.60;99.90
9730;DHT22;4904;49.152;11.004;2023-07-08T12:31:39;29.70;99.90
9730;DHT22;4904;49.152;11.004;2023-07-08T12:34:11;29.80;99.90
9730;DHT22;4904;49.152;11.004;2023-07-08T12:36:39;29.80;99.90
9730;DHT22;4904;49.152;11.004;2023-07-08T12:39:11;29.60;99.90
9730;DHT22;4904;49.152;11.004;2023-07-08T12:41:41;29.60;99.90
9730;DHT22;4904;49.152;11.004;2023-07-08T12:44:16;29.70;99.90
9730;DHT22;4904;49.152;11.004;2023-07-08T12:46:46;29.60;99.90
9730;DHT22;4904;49.152;11.004;2023-07-08T12:49:14;29.60;99.90
9730;DHT22;4904;49.152;11.004;2023-07-08T12:51:42;29.50;99.90
9730;DHT22;4904;49.152;11.004;2023-07-08T12:54:11;29.40;99.60
9730;DHT22;4904;49.152;11.004;2023-07-08T12:56:40;29.50;99.30
9730;DHT22;4904;49.152;11.004;2023-07-08T12:59:13;29.60;99.50
9730;DHT22;4904;49.152;11.004;2023-07-08T13:01:45;29.50;99.00
9730;DHT22;4904;49.152;11.004;2023-07-08T13:04:13;29.50;99.20
9730;DHT22;4904;49.152;11.004;2023-07-08T13:06:40;29.40;98.00
9730;DHT22;4904;49.152;11.004;2023-07-08T13:09:24;29.40;98.60
9730;DHT22;4904;49.152;11.004;2023-07-08T13:11:54;29.50;98.60
9730;DHT22;4904;49.152;11.004;2023-07-08T13:14:24;29.60;99.20
9730;DHT22;4904;49.152;11.004;2023-07-08T13:16:51;29.70;98.30
9730;DHT22;4904;49.152;11.004;2023-07-08T13:19:19;29.90;98.30
9730;DHT22;4904;49.152;11.004;2023-07-08T13:21:46;30.10;97.80
9730;DHT22;4904;49.152;11.004;2023-07-08T13:24:15;30.30;98.10
9730;DHT22;4904;49.152;11.004;2023-07-08T13:26:46;30.30;97.20
9730;DHT22;4904;49.152;11.004;2023-07-08T13:29:14;30.30;97.90
9730;DHT22;4904;49.152;11.004;2023-07-08T13:31:44;30.30;96.30
9730;DHT22;4904;49.152;11.004;2023-07-08T13:34:16;30.30;96.50
9730;DHT22;4904;49.152;11.004;2023-07-08T13:36:46;30.60;95.30
9730;DHT22;4904;49.152;11.004;2023-07-08T13:39:21;30.70;95.40
9730;DHT22;4904;49.152;11.004;2023-07-08T13:41:50;30.80;94.70
9730;DHT22;4904;49.152;11.004;2023-07-08T13:44:17;31.00;95.00
9730;DHT22;4904;49.152;11.004;2023-07-08T13:46:50;31.10;94.90
9730;DHT22;4904;49.152;11.004;2023-07-08T13:49:22;31.30;95.00
9730;DHT22;4904;49.152;11.004;2023-07-08T13:51:50;31.50;94.60
9730;DHT22;4904;49.152;11.004;2023-07-08T13:54:22;31.60;95.60
9730;DHT22;4904;49.152;11.004;2023-07-08T13:56:50;31.60;95.20
9730;DHT22;4904;49.152;11.004;2023-07-08T13:59:21;31.60;95.20
9730;DHT22;4904;49.152;11.004;2023-07-08T14:01:51;31.60;95.30
9730;DHT22;4904;49.152;11.004;2023-07-08T14:04:21;31.70;96.10
9730;DHT22;4904;49.152;11.004;2023-07-08T14:06:49;31.70;95.10
9730;DHT22;4904;49.152;11.004;2023-07-08T14:09:17;31.50;94.70
9730;DHT22;4904;49.152;11.004;2023-07-08T14:11:46;31.50;94.20
9730;DHT22;4904;49.152;11.004;2023-07-08T14:14:14;31.50;94.50
9730;DHT22;4904;49.152;11.004;2023-07-08T14:16:42;31.60;94.70
9730;DHT22;4904;49.152;11.004;2023-07-08T14:19:13;31.70;95.00
9730;DHT22;4904;49.152;11.004;2023-07-08T14:21:41;31.80;94.10
9730;DHT22;4904;49.152;11.004;2023-07-08T14:24:10;31.90;94.50
9730;DHT22;4904;49.152;11.004;2023-07-08T14:26:40;31.90;93.30
9730;DHT22;4904;49.152;11.004;2023-07-08T14:29:09;31.90;92.70
9730;DHT22;4904;49.152;11.004;2023-07-08T14:31:37;31.50;92.90
9730;DHT22;4904;49.152;11.004;2023-07-08T14:34:06;31.40;93.00
9730;DHT22;4904;49.152;11.004;2023-07-08T14:36:34;31.00;93.20
9730;DHT22;4904;49.152;11.004;2023-07-08T14:39:01;30.70;93.60
9730;DHT22;4904;49.152;11.004;2023-07-08T14:41:35;30.80;94.30
9730;DHT22;4904;49.152;11.004;2023-07-08T14:44:03;30.80;93.80
9730;DHT22;4904;49.152;11.004;2023-07-08T14:46:35;30.70;93.40
9730;DHT22;4904;49.152;11.004;2023-07-08T14:49:11;30.70;93.30
9730;DHT22;4904;49.152;11.004;2023-07-08T14:51:41;30.80;94.00
9730;DHT22;4904;49.152;11.004;2023-07-08T14:54:08;31.10;92.80
9730;DHT22;4904;49.152;11.004;2023-07-08T14:56:34;31.20;92.60
9730;DHT22;4904;49.152;11.004;2023-07-08T14:59:01;31.20;92.70
9730;DHT22;4904;49.152;11.004;2023-07-08T15:01:29;31.40;93.00
9730;DHT22;4904;49.152;11.004;2023-07-08T15:03:58;31.50;92.00
9730;DHT22;4904;49.152;11.004;2023-07-08T15:06:25;31.20;91.90
9730;DHT22;4904;49.152;11.004;2023-07-08T15:08:53;31.20;92.30
9730;DHT22;4904;49.152;11.004;2023-07-08T15:11:20;31.50;92.20
9730;DHT22;4904;49.152;11.004;2023-07-08T15:13:48;31.80;92.40
9730;DHT22;4904;49.152;11.004;2023-07-08T15:16:16;31.90;91.90
9730;DHT22;4904;49.152;11.004;2023-07-08T15:18:43;31.80;90.60
9730;DHT22;4904;49.152;11.004;2023-07-08T15:21:12;31.80;91.50
9730;DHT22;4904;49.152;11.004;2023-07-08T15:23:40;31.90;91.30
9730;DHT22;4904;49.152;11.004;2023-07-08T15:26:09;32.00;90.60
9730;DHT22;4904;49.152;11.004;2023-07-08T15:28:40;32.20;91.40
9730;DHT22;4904;49.152;11.004;2023-07-08T15:31:13;32.60;91.40
9730;DHT22;4904;49.152;11.004;2023-07-08T15:33:40;32.90;90.80
9730;DHT22;4904;49.152;11.004;2023-07-08T15:36:10;32.80;90.20
9730;DHT22;4904;49.152;11.004;2023-07-08T15:38:39;32.80;90.40
9730;DHT22;4904;49.152;11.004;2023-07-08T15:41:10;32.50;90.00
9730;DHT22;4904;49.152;11.004;2023-07-08T15:43:39;32.50;90.20
9730;DHT22;4904;49.152;11.004;2023-07-08T15:46:07;32.80;90.30
9730;DHT22;4904;49.152;11.004;2023-07-08T15:48:34;33.30;89.90
9730;DHT22;4904;49.152;11.004;2023-07-08T15:51:01;33.40;88.60
9730;DHT22;4904;49.152;11.004;2023-07-08T15:53:29;32.80;87.20
9730;DHT22;4904;49.152;11.004;2023-07-08T15:55:57;32.70;88.20
9730;DHT22;4904;49.152;11.004;2023-07-08T15:58:27;33.20;87.80